Rota, Spain
Current Conditions -  °F | °C
As of 1:00 PM on Saturday 20 Dec 2014 (Local Time) from LERT Reporting Station
Moderate Fog Moderate Fog  
Wind Chill: 46°   Ceiling: 100
Heat Index: 48°   Visibility: 0.18mi
Dew Point: 48°   Wind: 6mph
Humidity: 100%   Direction: 360°N
Pressure: 30.45"   Gusts: NA
Location:  36.62°N, 6.36°W
Report Text: LERT 201200Z 36005KT 330V050 0300 FG VV001 09/09 Q1031 NOSIG
Loading
Personal Weather Stations






























Interactive Weather Map New forecast layout! Learn more

10-Day Weather Forecast

Advertisements
Track Severe Weather on mobile